Time;durP1;ratioP1;P1;durP2;ratioP2;P2;SDS_P1;SDS_P2;PMS_P1;PMS_P2;Temp;Humidity;BMP_temperature;BMP_pressure;BME280_temperature;BME280_humidity;BME280_pressure;Samples;Min_cycle;Max_cycle;Signal;HPM_P1;HPM_P2
2022/08/04 00:00:13;;;;;;;4.97;1.50;;;19.70;99.90;;;;;;4976253;28;20029;-73
2022/08/04 00:02:52;;;;;;;4.75;1.40;;;19.80;99.90;;;;;;4976344;28;20110;-72
2022/08/04 00:05:53;;;;;;;2.40;1.08;;;19.70;99.90;;;;;;4976331;28;20073;-73
2022/08/04 00:08:29;;;;;;;2.00;1.20;;;19.80;99.90;;;;;;4976020;28;20133;-73
2022/08/04 00:11:00;;;;;;;4.03;1.30;;;19.80;99.90;;;;;;4975954;28;20035;-73
2022/08/04 00:13:35;;;;;;;3.13;1.50;;;19.90;99.90;;;;;;4958918;28;20475;-74
2022/08/04 00:16:07;;;;;;;4.03;1.20;;;19.90;99.90;;;;;;4974808;28;20499;-73
2022/08/04 00:18:41;;;;;;;2.50;1.20;;;19.90;99.90;;;;;;4974382;28;20027;-73
2022/08/04 00:21:14;;;;;;;2.63;1.35;;;20.00;99.90;;;;;;4974609;28;20023;-73
2022/08/04 00:23:44;;;;;;;4.32;1.00;;;19.90;99.90;;;;;;4974306;28;20030;-73
2022/08/04 00:26:15;;;;;;;4.38;1.67;;;20.00;99.90;;;;;;4974528;28;20110;-73
2022/08/04 00:28:42;;;;;;;2.00;0.88;;;20.00;99.90;;;;;;4975746;28;20462;-73
2022/08/04 00:31:11;;;;;;;2.75;1.15;;;20.10;99.90;;;;;;4974789;28;20486;-73
2022/08/04 00:33:38;;;;;;;2.75;1.20;;;20.10;99.90;;;;;;4975870;28;20023;-72
2022/08/04 00:36:06;;;;;;;4.38;1.10;;;20.20;99.90;;;;;;4974172;28;20023;-75
2022/08/04 00:38:34;;;;;;;1.63;0.90;;;20.20;99.90;;;;;;4974223;28;20451;-75
2022/08/04 00:41:42;;;;;;;5.90;1.48;;;20.20;99.90;;;;;;4975508;28;20022;-76
2022/08/04 00:44:25;;;;;;;4.47;1.20;;;20.30;99.90;;;;;;4947814;28;20391;-74
2022/08/04 00:47:27;;;;;;;2.95;1.33;;;20.20;99.90;;;;;;4974070;28;20110;-75
2022/08/04 00:50:07;;;;;;;2.50;0.93;;;20.20;99.90;;;;;;4973963;28;20113;-73
2022/08/04 00:52:46;;;;;;;3.63;1.25;;;20.20;99.90;;;;;;4974712;28;20026;-72
2022/08/04 00:55:32;;;;;;;2.00;0.95;;;20.20;99.90;;;;;;4973943;28;20380;-74
2022/08/04 00:58:18;;;;;;;4.70;1.30;;;20.20;99.90;;;;;;4975614;28;20034;-75
2022/08/04 01:00:58;;;;;;;4.47;1.02;;;20.30;99.90;;;;;;4973816;28;20110;-75
2022/08/04 01:03:34;;;;;;;4.30;1.10;;;20.40;99.90;;;;;;4975603;28;20094;-75
2022/08/04 01:06:29;;;;;;;3.42;1.20;;;20.40;99.90;;;;;;4975319;28;20019;-75
2022/08/04 01:09:03;;;;;;;3.17;1.10;;;20.40;99.90;;;;;;4973704;28;20495;-75
2022/08/04 01:12:09;;;;;;;3.70;1.00;;;20.40;99.90;;;;;;4973772;28;20086;-75
2022/08/04 01:14:51;;;;;;;4.72;1.30;;;20.50;99.90;;;;;;4975027;28;20038;-75
2022/08/04 01:17:39;;;;;;;4.20;1.20;;;20.50;99.90;;;;;;4974618;28;20023;-75
2022/08/04 01:20:09;;;;;;;3.30;1.20;;;20.40;99.90;;;;;;4975300;28;20023;-75
2022/08/04 01:23:06;;;;;;;3.13;0.98;;;20.40;99.90;;;;;;4973488;28;20031;-75
2022/08/04 01:25:58;;;;;;;4.00;1.27;;;20.30;99.90;;;;;;4973736;28;20439;-75
2022/08/04 01:28:47;;;;;;;3.55;1.10;;;20.30;99.90;;;;;;4975226;28;20033;-75
2022/08/04 01:31:24;;;;;;;2.47;1.13;;;20.30;99.90;;;;;;4974787;28;20391;-74
2022/08/04 01:33:57;;;;;;;4.55;1.45;;;20.30;99.90;;;;;;4974771;28;20387;-75
2022/08/04 01:36:25;;;;;;;2.95;1.15;;;20.30;99.90;;;;;;4973237;28;20030;-75
2022/08/04 01:38:54;;;;;;;2.20;1.20;;;20.30;99.90;;;;;;4973345;28;20031;-75
2022/08/04 01:41:23;;;;;;;2.35;1.25;;;20.30;99.90;;;;;;4973452;28;20082;-75
2022/08/04 01:43:55;;;;;;;3.70;1.30;;;20.30;99.90;;;;;;4975136;28;20444;-75
2022/08/04 01:46:25;;;;;;;3.70;1.20;;;20.30;99.90;;;;;;4974584;28;20039;-75
2022/08/04 01:48:54;;;;;;;2.75;1.20;;;20.30;99.90;;;;;;4973557;28;20033;-75
2022/08/04 01:51:23;;;;;;;2.33;1.17;;;20.30;99.90;;;;;;4974601;28;20023;-75
2022/08/04 01:53:51;;;;;;;2.33;1.05;;;20.30;99.90;;;;;;4974579;28;20050;-74
2022/08/04 01:56:19;;;;;;;2.35;0.93;;;20.30;99.90;;;;;;4974129;28;20038;-75
2022/08/04 01:58:47;;;;;;;2.35;1.25;;;20.30;99.90;;;;;;4972958;28;20039;-75
2022/08/04 02:01:15;;;;;;;2.65;1.23;;;20.30;99.90;;;;;;4973230;28;20386;-74
2022/08/04 02:03:45;;;;;;;2.83;1.27;;;20.30;99.90;;;;;;4972976;28;20057;-75
2022/08/04 02:06:33;;;;;;;3.30;1.30;;;20.30;99.90;;;;;;4978251;28;20054;-74
2022/08/04 02:09:35;;;;;;;3.10;1.08;;;20.20;99.90;;;;;;4977273;28;20030;-74
2022/08/04 02:12:28;;;;;;;2.88;1.20;;;20.20;99.90;;;;;;4978382;28;20522;-74
2022/08/04 02:15:09;;;;;;;3.72;1.40;;;20.20;99.90;;;;;;4978506;28;20396;-74
2022/08/04 02:17:39;;;;;;;3.80;1.40;;;20.10;99.90;;;;;;4978095;28;20085;-75
2022/08/04 02:20:09;;;;;;;3.05;1.40;;;20.10;99.90;;;;;;4978314;28;20046;-74
2022/08/04 02:23:02;;;;;;;4.13;1.30;;;20.10;99.90;;;;;;4978090;28;20027;-75
2022/08/04 02:25:37;;;;;;;2.75;1.40;;;20.10;99.90;;;;;;4978214;28;20033;-75
2022/08/04 02:28:27;;;;;;;3.00;1.05;;;20.10;99.90;;;;;;4976826;28;20034;-75
2022/08/04 02:31:11;;;;;;;4.13;1.33;;;20.10;99.90;;;;;;4978524;28;20023;-75
2022/08/04 02:33:45;;;;;;;4.30;1.27;;;20.10;99.90;;;;;;4976558;28;20033;-75
2022/08/04 02:36:35;;;;;;;3.03;1.25;;;20.10;99.90;;;;;;4978093;28;20027;-74
2022/08/04 02:39:04;;;;;;;2.90;0.95;;;20.10;99.90;;;;;;4978019;28;20038;-74
2022/08/04 02:41:32;;;;;;;1.75;0.90;;;20.10;99.90;;;;;;4977579;28;20023;-74
2022/08/04 02:44:02;;;;;;;2.63;1.13;;;20.10;99.90;;;;;;4976173;28;20030;-74
2022/08/04 02:46:31;;;;;;;1.55;0.98;;;20.10;99.90;;;;;;4977609;28;20044;-74
2022/08/04 02:49:00;;;;;;;3.17;1.17;;;20.10;99.90;;;;;;4977457;28;20086;-74
2022/08/04 02:51:31;;;;;;;3.43;1.03;;;20.10;99.90;;;;;;4977607;28;20022;-74
2022/08/04 02:54:01;;;;;;;3.85;1.23;;;20.10;99.90;;;;;;4976141;28;20042;-74
2022/08/04 02:56:35;;;;;;;3.30;1.20;;;20.10;99.90;;;;;;4976361;28;20038;-73
2022/08/04 02:59:06;;;;;;;5.03;1.48;;;20.20;99.90;;;;;;4977190;28;20265;-71
2022/08/04 03:01:35;;;;;;;3.90;1.13;;;20.20;99.90;;;;;;4975925;28;20019;-73
2022/08/04 03:04:31;;;;;;;2.03;1.20;;;20.30;99.90;;;;;;4975843;28;20030;-72
2022/08/04 03:07:19;;;;;;;2.85;1.45;;;20.30;99.90;;;;;;4977437;28;20055;-75
2022/08/04 03:09:55;;;;;;;3.25;1.33;;;20.30;99.90;;;;;;4975967;28;20038;-75
2022/08/04 03:12:31;;;;;;;2.80;1.30;;;20.40;99.90;;;;;;4975978;28;20035;-74
2022/08/04 03:15:29;;;;;;;5.35;1.70;;;20.40;99.90;;;;;;4976922;28;20443;-73
2022/08/04 03:18:20;;;;;;;3.78;1.30;;;20.50;99.90;;;;;;4975786;28;20031;-73
2022/08/04 03:21:15;;;;;;;2.60;1.40;;;20.40;99.90;;;;;;4977349;28;20033;-72
2022/08/04 03:24:27;;;;;;;4.65;1.40;;;20.30;99.90;;;;;;4975564;28;20027;-74
2022/08/04 03:26:55;;;;;;;2.50;1.30;;;20.20;99.90;;;;;;4975508;28;20399;-73
2022/08/04 03:29:42;;;;;;;6.38;1.50;;;20.10;99.90;;;;;;4976983;28;20029;-74
2022/08/04 03:32:45;;;;;;;3.35;1.55;;;20.10;99.90;;;;;;4976785;28;20130;-74
2022/08/04 03:35:49;;;;;;;4.30;1.30;;;20.10;99.90;;;;;;4976771;28;20026;-75
2022/08/04 03:39:02;;;;;;;3.75;1.30;;;19.90;99.90;;;;;;4975288;28;20068;-74
2022/08/04 03:41:48;;;;;;;4.53;1.25;;;20.00;99.90;;;;;;4975345;28;20034;-70
2022/08/04 03:44:31;;;;;;;2.45;1.08;;;19.90;99.90;;;;;;4976234;28;20026;-71
2022/08/04 03:47:34;;;;;;;2.97;1.20;;;19.90;99.90;;;;;;4974994;28;20502;-71
2022/08/04 03:50:29;;;;;;;2.95;1.50;;;20.00;99.90;;;;;;4974997;28;20023;-72
2022/08/04 03:53:18;;;;;;;4.80;1.30;;;20.00;99.90;;;;;;4974817;28;20027;-70
2022/08/04 03:56:01;;;;;;;2.95;1.15;;;20.00;99.90;;;;;;4974751;28;20062;-72
2022/08/04 03:58:43;;;;;;;3.42;1.40;;;20.10;99.90;;;;;;4976386;28;20038;-71
2022/08/04 04:01:28;;;;;;;4.25;1.30;;;20.10;99.90;;;;;;4976424;28;20395;-70
2022/08/04 04:04:01;;;;;;;3.22;1.40;;;20.20;99.90;;;;;;4976518;28;20023;-70
2022/08/04 04:07:16;;;;;;;5.20;1.10;;;20.20;99.90;;;;;;4976117;28;20023;-71
2022/08/04 04:10:19;;;;;;;2.03;0.93;;;20.20;99.90;;;;;;4950362;28;20098;-70
2022/08/04 04:13:09;;;;;;;2.92;1.00;;;20.20;99.90;;;;;;4976365;28;20034;-71
2022/08/04 04:15:55;;;;;;;2.50;1.20;;;20.30;99.90;;;;;;4974656;28;20037;-72
2022/08/04 04:18:46;;;;;;;3.25;1.10;;;20.40;99.90;;;;;;4974466;28;20027;-72
2022/08/04 04:21:29;;;;;;;4.25;1.52;;;20.50;99.90;;;;;;4975640;28;20508;-72
2022/08/04 04:24:02;;;;;;;2.17;1.10;;;20.50;99.90;;;;;;4975739;28;20391;-72
2022/08/04 04:26:58;;;;;;;2.35;1.38;;;20.50;99.90;;;;;;4973923;28;20498;-71
2022/08/04 04:29:50;;;;;;;4.13;1.45;;;20.50;99.90;;;;;;4974263;28;20109;-72
2022/08/04 04:32:46;;;;;;;3.80;1.45;;;20.50;99.90;;;;;;4974073;28;20030;-72
2022/08/04 04:35:37;;;;;;;3.78;1.10;;;20.50;99.90;;;;;;4975493;28;20077;-71
2022/08/04 04:38:21;;;;;;;;;;;20.40;99.90;;;;;;4976097;28;20106;-71
2022/08/04 04:41:03;;;;;;;2.97;1.58;;;20.40;99.90;;;;;;4975492;28;19906;-72
2022/08/04 04:43:46;;;;;;;2.33;0.90;;;20.40;99.90;;;;;;4974076;28;20027;-72
2022/08/04 04:46:45;;;;;;;1.85;1.10;;;20.30;99.90;;;;;;4973741;28;20039;-72
2022/08/04 04:49:29;;;;;;;2.28;1.00;;;20.40;99.90;;;;;;4975281;28;20081;-71
2022/08/04 04:52:17;;;;;;;2.88;1.15;;;20.40;99.90;;;;;;4973741;28;20170;-72
2022/08/04 04:54:55;;;;;;;3.58;1.27;;;20.30;99.90;;;;;;4973826;28;20034;-71
2022/08/04 04:57:25;;;;;;;3.15;1.25;;;20.30;99.90;;;;;;4973623;28;20121;-71
2022/08/04 05:00:13;;;;;;;3.13;0.98;;;20.20;99.90;;;;;;4973780;28;20022;-71
2022/08/04 05:03:04;;;;;;;2.22;1.00;;;20.20;99.90;;;;;;4957677;28;20374;-71
2022/08/04 05:05:54;;;;;;;3.20;1.30;;;20.10;99.90;;;;;;4973781;28;20081;-72
2022/08/04 05:08:39;;;;;;;;;;;20.10;99.90;;;;;;4973982;28;20026;-72
2022/08/04 05:11:22;;;;;;;2.45;1.05;;;20.10;99.90;;;;;;4973357;28;19917;-71
2022/08/04 05:14:09;;;;;;;1.17;0.90;;;20.10;99.90;;;;;;4974750;28;20034;-72
2022/08/04 05:16:46;;;;;;;4.28;1.30;;;20.10;99.90;;;;;;4958589;28;20404;-71
2022/08/04 05:19:50;;;;;;;3.60;1.20;;;20.00;99.90;;;;;;4973668;28;20019;-72
2022/08/04 05:22:35;;;;;;;2.17;1.08;;;20.00;99.90;;;;;;4973416;28;20086;-71
2022/08/04 05:25:13;;;;;;;1.80;1.00;;;19.90;99.90;;;;;;4975322;28;20027;-71
2022/08/04 05:28:07;;;;;;;2.58;1.30;;;19.80;99.90;;;;;;4974770;28;20057;-70
2022/08/04 05:30:47;;;;;;;2.22;1.00;;;19.80;99.90;;;;;;4974390;28;20027;-72
2022/08/04 05:33:32;;;;;;;2.90;1.15;;;19.70;99.90;;;;;;4974449;28;20046;-71
2022/08/04 05:36:05;;;;;;;2.67;1.40;;;19.70;99.90;;;;;;4957000;28;20041;-70
2022/08/04 05:38:37;;;;;;;4.57;1.40;;;19.60;99.90;;;;;;4972603;28;20106;-71
2022/08/04 05:41:08;;;;;;;2.75;1.10;;;19.70;99.90;;;;;;4957563;28;20418;-71
2022/08/04 05:43:42;;;;;;;2.03;0.82;;;19.50;99.90;;;;;;4974782;28;20379;-72
2022/08/04 05:46:13;;;;;;;3.72;1.35;;;19.50;99.90;;;;;;4973270;28;20046;-75
2022/08/04 05:48:41;;;;;;;2.28;1.27;;;19.40;99.90;;;;;;4957081;28;20035;-71
2022/08/04 05:51:11;;;;;;;2.58;1.33;;;19.30;99.90;;;;;;4974497;28;20030;-72
2022/08/04 05:53:43;;;;;;;2.00;1.17;;;19.30;99.90;;;;;;4972909;28;20033;-72
2022/08/04 05:56:13;;;;;;;4.45;1.45;;;19.30;99.90;;;;;;4974349;28;20023;-72
2022/08/04 05:58:42;;;;;;;3.80;1.30;;;19.30;99.90;;;;;;4974178;28;20054;-71
2022/08/04 06:01:11;;;;;;;2.70;1.20;;;19.30;99.90;;;;;;4973067;28;20123;-71
2022/08/04 06:03:40;;;;;;;3.37;1.70;;;19.30;99.90;;;;;;4974115;28;20015;-72
2022/08/04 06:06:10;;;;;;;2.83;1.40;;;19.20;99.90;;;;;;4974105;28;20154;-70
2022/08/04 06:08:38;;;;;;;3.30;1.48;;;19.20;99.90;;;;;;4974108;28;20022;-71
2022/08/04 06:11:07;;;;;;;3.30;1.40;;;19.10;99.90;;;;;;4974078;28;20031;-71
2022/08/04 06:13:43;;;;;;;3.35;1.30;;;19.00;99.90;;;;;;4973479;28;20066;-71
2022/08/04 06:16:14;;;;;;;2.50;1.45;;;19.00;99.90;;;;;;4974506;28;20025;-71
2022/08/04 06:18:44;;;;;;;3.78;1.38;;;19.00;99.90;;;;;;4974170;28;20060;-71
2022/08/04 06:21:16;;;;;;;2.67;1.65;;;19.10;99.90;;;;;;4974208;28;20031;-71
2022/08/04 06:23:45;;;;;;;2.80;1.50;;;19.20;99.90;;;;;;4972789;28;20368;-71
2022/08/04 06:26:18;;;;;;;2.10;1.33;;;19.30;99.90;;;;;;4974021;28;20391;-72
2022/08/04 06:28:51;;;;;;;2.90;1.40;;;19.30;99.90;;;;;;4973873;28;20089;-70
2022/08/04 06:31:41;;;;;;;2.55;1.48;;;19.30;99.90;;;;;;4972801;28;20546;-71
2022/08/04 06:34:11;;;;;;;4.05;1.70;;;19.30;99.90;;;;;;4973765;28;20510;-71
2022/08/04 06:36:39;;;;;;;3.47;1.90;;;19.30;99.90;;;;;;4972904;28;20111;-71
2022/08/04 06:39:09;;;;;;;3.75;1.55;;;19.40;99.90;;;;;;4973838;28;20110;-71
2022/08/04 06:41:39;;;;;;;3.38;1.90;;;19.40;99.90;;;;;;4972420;28;20433;-70
2022/08/04 06:44:12;;;;;;;3.47;1.77;;;19.30;99.90;;;;;;4956086;28;20062;-71
2022/08/04 06:46:41;;;;;;;2.75;1.58;;;19.30;99.90;;;;;;4972652;28;20034;-70
2022/08/04 06:49:09;;;;;;;4.78;1.63;;;19.20;99.90;;;;;;4973616;28;20046;-70
2022/08/04 06:51:38;;;;;;;2.40;1.70;;;19.20;99.90;;;;;;4976061;28;20527;-71
2022/08/04 06:54:05;;;;;;;2.60;1.60;;;19.20;99.90;;;;;;4977463;28;20030;-71
2022/08/04 06:56:35;;;;;;;2.97;1.70;;;19.20;99.90;;;;;;4977336;28;20030;-71
2022/08/04 06:59:03;;;;;;;3.03;1.65;;;19.20;99.90;;;;;;4977354;28;20516;-71
2022/08/04 07:01:31;;;;;;;4.13;2.03;;;19.00;99.90;;;;;;4976012;28;20034;-71
2022/08/04 07:03:59;;;;;;;3.17;1.90;;;18.90;99.90;;;;;;4977079;28;20046;-72
2022/08/04 07:06:27;;;;;;;3.38;2.05;;;18.70;99.90;;;;;;4975887;28;20026;-72
2022/08/04 07:08:55;;;;;;;3.30;1.75;;;18.50;99.90;;;;;;4977211;28;20034;-72
2022/08/04 07:11:23;;;;;;;3.67;2.22;;;18.50;99.90;;;;;;4975707;28;20487;-72
2022/08/04 07:13:53;;;;;;;3.05;1.90;;;18.40;99.90;;;;;;4975585;28;20026;-71
2022/08/04 07:16:21;;;;;;;4.68;2.42;;;18.30;99.90;;;;;;4976195;28;20090;-72
2022/08/04 07:18:48;;;;;;;4.38;2.13;;;18.20;99.90;;;;;;4976909;28;20390;-71
2022/08/04 07:21:23;;;;;;;3.72;2.40;;;18.10;99.90;;;;;;4976894;28;20476;-72
2022/08/04 07:23:53;;;;;;;3.75;2.40;;;18.00;99.90;;;;;;4976959;28;20042;-71
2022/08/04 07:26:27;;;;;;;3.50;2.45;;;17.80;99.90;;;;;;4975308;28;20022;-72
2022/08/04 07:28:58;;;;;;;5.15;2.25;;;17.70;99.90;;;;;;4977024;28;20054;-71
2022/08/04 07:31:27;;;;;;;4.47;2.40;;;17.60;99.90;;;;;;4976741;28;20082;-72
2022/08/04 07:33:56;;;;;;;3.08;2.15;;;17.50;99.90;;;;;;4976803;28;20029;-71
2022/08/04 07:36:23;;;;;;;4.47;2.50;;;17.40;99.90;;;;;;4976599;28;20197;-71
2022/08/04 07:38:50;;;;;;;3.75;2.60;;;17.40;99.90;;;;;;4975324;28;20509;-71
2022/08/04 07:41:22;;;;;;;4.85;2.08;;;17.30;99.90;;;;;;4976689;28;20026;-71
2022/08/04 07:44:08;;;;;;;3.13;2.53;;;17.30;99.90;;;;;;4975379;28;20033;-71
2022/08/04 07:55:50;;;;;;;5.28;2.53;;;17.20;99.90;;;;;;4976570;28;20110;-72
2022/08/04 07:58:35;;;;;;;4.75;2.10;;;17.20;99.90;;;;;;4958656;28;20067;-71
2022/08/04 08:01:02;;;;;;;3.78;2.60;;;17.20;99.90;;;;;;4976085;28;20023;-72
2022/08/04 08:03:30;;;;;;;5.93;3.03;;;17.20;99.90;;;;;;4976041;28;20391;-72
2022/08/04 08:05:57;;;;;;;3.90;2.50;;;17.20;99.90;;;;;;4974836;28;20022;-69
2022/08/04 08:08:25;;;;;;;3.25;2.55;;;17.30;99.90;;;;;;4974670;28;20399;-73
2022/08/04 08:10:52;;;;;;;3.95;2.50;;;17.30;99.90;;;;;;4974828;28;20033;-73
2022/08/04 08:13:21;;;;;;;3.88;2.55;;;17.20;99.90;;;;;;4976056;28;20085;-72
2022/08/04 08:15:49;;;;;;;3.75;2.63;;;17.20;99.90;;;;;;4958771;28;20039;-70
2022/08/04 08:18:17;;;;;;;5.85;2.90;;;17.10;99.90;;;;;;4974616;28;20122;-72
2022/08/04 08:20:47;;;;;;;5.10;2.75;;;17.10;99.90;;;;;;4974527;28;20026;-71
2022/08/04 08:23:14;;;;;;;3.25;2.50;;;17.00;99.90;;;;;;4975733;28;20019;-71
2022/08/04 08:25:42;;;;;;;4.30;3.03;;;16.90;99.90;;;;;;4976154;28;20085;-72
2022/08/04 08:28:10;;;;;;;3.47;2.70;;;16.90;99.90;;;;;;4976208;28;20023;-72
2022/08/04 08:30:37;;;;;;;4.20;2.88;;;16.80;99.90;;;;;;4975833;28;20126;-71
2022/08/04 08:33:12;;;;;;;5.82;2.90;;;16.90;99.90;;;;;;4974528;28;20023;-71
2022/08/04 08:35:48;;;;;;;3.78;2.78;;;16.80;99.90;;;;;;4974333;28;20113;-71
2022/08/04 08:38:21;;;;;;;4.70;2.88;;;16.80;99.90;;;;;;4974216;28;20106;-71
2022/08/04 08:40:58;;;;;;;7.70;2.53;;;16.80;99.90;;;;;;4975609;28;20412;-71
2022/08/04 08:43:43;;;;;;;2.90;2.05;;;16.70;99.90;;;;;;4975687;28;20162;-72
2022/08/04 08:46:35;;;;;;;2.90;2.38;;;16.70;99.90;;;;;;4973922;28;20126;-72
2022/08/04 08:49:20;;;;;;;2.45;1.80;;;16.70;99.90;;;;;;4974019;28;20031;-72
2022/08/04 08:52:35;;;;;;;3.83;2.47;;;16.70;99.90;;;;;;4974098;28;20062;-72
2022/08/04 08:55:30;;;;;;;3.05;2.47;;;16.60;99.90;;;;;;4940731;28;20038;-72
2022/08/04 08:58:24;;;;;;;4.18;2.80;;;16.60;99.90;;;;;;4975398;28;20142;-72
2022/08/04 09:01:17;;;;;;;2.85;2.10;;;16.60;99.90;;;;;;4974117;28;20491;-74
2022/08/04 09:03:56;;;;;;;2.38;1.95;;;16.50;99.90;;;;;;4974161;28;20062;-74
2022/08/04 09:06:51;;;;;;;3.75;1.95;;;16.50;99.90;;;;;;4975353;28;20051;-72
2022/08/04 09:09:56;;;;;;;3.28;1.80;;;16.50;99.90;;;;;;4973569;28;20134;-73
2022/08/04 09:12:35;;;;;;;2.28;1.60;;;16.50;99.90;;;;;;4975646;28;20460;-73
2022/08/04 09:15:17;;;;;;;2.88;1.75;;;16.50;99.90;;;;;;4974994;28;20023;-72
2022/08/04 09:18:14;;;;;;;1.98;1.20;;;16.50;99.90;;;;;;4973945;28;20031;-75
2022/08/04 09:20:53;;;;;;;4.57;1.50;;;16.40;99.90;;;;;;4960904;28;20117;-74
2022/08/04 09:23:36;;;;;;;2.17;1.20;;;16.40;99.90;;;;;;4973960;28;20072;-73
2022/08/04 09:26:26;;;;;;;2.00;1.23;;;16.30;99.90;;;;;;4973784;28;20091;-71
2022/08/04 09:29:25;;;;;;;2.17;1.20;;;16.40;99.90;;;;;;4974655;28;20127;-69
2022/08/04 09:32:21;;;;;;;2.30;1.10;;;16.40;99.90;;;;;;4974646;28;20061;-73
2022/08/04 09:34:51;;;;;;;1.55;1.10;;;16.40;99.90;;;;;;4973524;28;20042;-71
2022/08/04 09:38:00;;;;;;;2.80;1.50;;;16.40;99.90;;;;;;4973381;28;20034;-73
2022/08/04 09:40:32;;;;;;;1.45;0.90;;;16.40;99.90;;;;;;4931569;28;20031;-73
2022/08/04 09:43:28;;;;;;;1.10;0.88;;;16.40;99.90;;;;;;4975122;28;20109;-74
2022/08/04 09:46:13;;;;;;;0.98;0.82;;;16.30;99.90;;;;;;4973228;28;20135;-74
2022/08/04 09:49:06;;;;;;;1.20;0.82;;;16.30;99.90;;;;;;4974862;28;20035;-75
2022/08/04 09:51:54;;;;;;;1.05;0.95;;;16.20;99.90;;;;;;4974955;28;20483;-75
2022/08/04 09:54:31;;;;;;;2.42;1.13;;;16.20;99.90;;;;;;4973473;28;20034;-74
2022/08/04 09:57:21;;;;;;;2.20;1.00;;;16.20;99.90;;;;;;4974670;28;20031;-73
2022/08/04 10:00:10;;;;;;;1.35;0.90;;;16.10;99.90;;;;;;4975798;28;20023;-73
2022/08/04 10:02:41;;;;;;;1.33;1.10;;;16.10;99.90;;;;;;4973372;28;20054;-75
2022/08/04 10:05:16;;;;;;;1.70;1.30;;;16.10;99.90;;;;;;4974646;28;20035;-75
2022/08/04 10:08:17;;;;;;;1.10;1.00;;;16.10;99.90;;;;;;4973302;28;20027;-75
2022/08/04 10:10:56;;;;;;;2.17;1.00;;;16.10;99.90;;;;;;4974490;28;20022;-74
2022/08/04 10:13:36;;;;;;;1.13;0.88;;;16.10;99.90;;;;;;4972858;28;20027;-73
2022/08/04 10:16:07;;;;;;;1.40;0.95;;;16.20;99.90;;;;;;4974518;28;20026;-73
2022/08/04 10:18:46;;;;;;;1.20;0.80;;;16.20;99.90;;;;;;4972877;28;20426;-74
2022/08/04 10:21:50;;;;;;;1.70;1.23;;;16.10;99.90;;;;;;4972870;28;20030;-74
2022/08/04 10:24:49;;;;;;;1.08;0.98;;;16.10;99.90;;;;;;4973132;28;20023;-73
2022/08/04 10:27:24;;;;;;;1.77;1.00;;;16.10;99.90;;;;;;4962155;28;20039;-72
2022/08/04 10:30:12;;;;;;;1.92;0.90;;;16.10;99.90;;;;;;4978414;28;20034;-73
2022/08/04 10:33:04;;;;;;;0.70;0.70;;;16.00;99.90;;;;;;4976745;28;20031;-75
2022/08/04 10:36:00;;;;;;;1.30;0.85;;;16.10;99.90;;;;;;4976981;28;20026;-74
2022/08/04 10:38:34;;;;;;;2.30;1.10;;;16.10;99.90;;;;;;4976532;28;20033;-74
2022/08/04 10:41:27;;;;;;;0.90;0.73;;;16.10;99.90;;;;;;4978475;28;20102;-74
2022/08/04 10:44:25;;;;;;;2.00;0.98;;;16.10;99.90;;;;;;4961713;28;20583;-73
2022/08/04 10:47:04;;;;;;;1.10;0.88;;;16.10;99.90;;;;;;4977972;28;20034;-73
2022/08/04 10:49:53;;;;;;;1.52;0.80;;;16.10;99.90;;;;;;4976406;28;20030;-74
2022/08/04 10:52:32;;;;;;;2.17;0.85;;;16.10;99.90;;;;;;4976892;28;20031;-74
2022/08/04 10:55:31;;;;;;;0.98;0.70;;;16.20;99.90;;;;;;4977800;28;20492;-74
2022/08/04 10:58:05;;;;;;;0.70;0.43;;;16.20;99.90;;;;;;4966124;28;20507;-73
2022/08/04 11:00:36;;;;;;;0.73;0.60;;;16.20;99.90;;;;;;4976231;28;20113;-72
2022/08/04 11:03:30;;;;;;;0.50;0.50;;;16.20;99.90;;;;;;4976136;28;20518;-71
2022/08/04 11:06:02;;;;;;;1.63;0.52;;;16.30;99.90;;;;;;4977647;28;20027;-72
2022/08/04 11:08:50;;;;;;;1.15;0.73;;;16.30;99.90;;;;;;4960684;28;20035;-72
2022/08/04 11:11:26;;;;;;;1.67;0.82;;;16.30;99.90;;;;;;4977427;28;20494;-75
2022/08/04 11:13:54;;;;;;;0.88;0.50;;;16.30;99.90;;;;;;4977322;28;20046;-73
2022/08/04 11:16:32;;;;;;;0.63;0.50;;;16.30;99.90;;;;;;4977144;28;20092;-72
2022/08/04 11:19:24;;;;;;;1.20;0.63;;;16.40;99.90;;;;;;4976085;28;20115;-72
2022/08/04 11:21:59;;;;;;;0.93;0.40;;;16.40;99.90;;;;;;4977192;28;20026;-73
2022/08/04 11:24:34;;;;;;;0.75;0.63;;;16.40;99.90;;;;;;4977363;28;20108;-72
2022/08/04 11:27:15;;;;;;;0.63;0.50;;;16.40;99.90;;;;;;4977120;28;20058;-73
2022/08/04 11:29:56;;;;;;;;;;;16.40;99.90;;;;;;4978019;28;20019;-73
2022/08/04 11:32:46;;;;;;;1.20;0.40;;;16.40;99.90;;;;;;4977145;28;19984;-73
2022/08/04 11:35:44;;;;;;;0.30;0.30;;;16.40;99.90;;;;;;4976948;28;20031;-74
2022/08/04 11:38:42;;;;;;;0.40;0.40;;;16.40;99.90;;;;;;4976539;28;20031;-74
2022/08/04 11:41:15;;;;;;;0.60;0.40;;;16.40;99.90;;;;;;4977302;28;20105;-75
2022/08/04 11:43:57;;;;;;;0.93;0.43;;;16.40;99.90;;;;;;4977025;28;20037;-74
2022/08/04 11:46:40;;;;;;;1.00;0.30;;;16.40;99.90;;;;;;4975600;28;20059;-74
2022/08/04 11:49:47;;;;;;;0.38;0.38;;;16.50;99.90;;;;;;4977139;28;20030;-72
2022/08/04 11:52:20;;;;;;;2.80;0.40;;;16.50;99.90;;;;;;4975331;28;20027;-74
2022/08/04 11:54:50;;;;;;;0.57;0.40;;;16.40;99.90;;;;;;4959492;28;20043;-72
2022/08/04 11:57:18;;;;;;;0.80;0.50;;;16.40;99.90;;;;;;4959410;28;20407;-74
2022/08/04 11:59:48;;;;;;;1.10;0.45;;;16.40;99.90;;;;;;4959179;28;20094;-73
2022/08/04 12:02:32;;;;;;;0.88;0.40;;;16.30;99.90;;;;;;4976427;28;20392;-73
2022/08/04 12:05:05;;;;;;;0.68;0.50;;;16.30;99.90;;;;;;4976856;28;20025;-73
2022/08/04 12:07:54;;;;;;;0.55;0.52;;;16.30;99.90;;;;;;4975322;28;20035;-73
2022/08/04 12:10:52;;;;;;;0.90;0.50;;;16.30;99.90;;;;;;4976378;28;20026;-73
2022/08/04 12:13:35;;;;;;;0.50;0.50;;;16.20;99.90;;;;;;4975528;28;20058;-73
2022/08/04 12:16:44;;;;;;;2.50;0.60;;;16.20;99.90;;;;;;4976349;28;20077;-73
2022/08/04 12:19:50;;;;;;;1.83;0.50;;;16.20;99.90;;;;;;4900634;29;20512;-73
2022/08/04 12:22:26;;;;;;;1.02;0.40;;;16.20;99.90;;;;;;4900759;29;20119;-73
2022/08/04 12:25:06;;;;;;;0.40;0.40;;;16.20;99.90;;;;;;4962459;28;20039;-73
2022/08/04 12:28:07;;;;;;;0.50;0.40;;;16.20;99.90;;;;;;4976165;28;20023;-73
2022/08/04 12:30:41;;;;;;;1.10;0.60;;;16.20;99.90;;;;;;4974520;28;20030;-73
2022/08/04 12:33:24;;;;;;;1.00;0.52;;;16.20;99.90;;;;;;4976320;28;20018;-73
2022/08/04 12:36:01;;;;;;;1.90;0.60;;;16.20;99.90;;;;;;4974702;28;20090;-74
2022/08/04 12:38:33;;;;;;;0.60;0.47;;;16.10;99.90;;;;;;4975851;28;20113;-74
2022/08/04 12:41:02;;;;;;;0.65;0.40;;;16.10;99.90;;;;;;4974426;28;20432;-74
2022/08/04 12:43:39;;;;;;;0.75;0.50;;;16.10;99.90;;;;;;4975791;28;20081;-74
2022/08/04 12:46:10;;;;;;;0.85;0.50;;;16.20;99.90;;;;;;4975468;28;20113;-74
2022/08/04 12:48:44;;;;;;;0.85;0.50;;;16.20;99.90;;;;;;4973601;28;20030;-73
2022/08/04 12:51:13;;;;;;;1.23;0.55;;;16.20;99.90;;;;;;4958973;28;20030;-73
2022/08/04 12:53:42;;;;;;;0.38;0.30;;;16.20;99.90;;;;;;4975535;28;20026;-73
2022/08/04 12:56:16;;;;;;;0.80;0.60;;;16.10;99.90;;;;;;4975503;28;20034;-73
2022/08/04 12:58:51;;;;;;;0.52;0.40;;;16.10;99.90;;;;;;4975380;28;20081;-73
2022/08/04 13:01:23;;;;;;;0.95;0.60;;;16.10;99.90;;;;;;4973970;28;20046;-72
2022/08/04 13:03:57;;;;;;;0.65;0.50;;;16.10;99.90;;;;;;4975415;28;20019;-73
2022/08/04 13:06:29;;;;;;;0.70;0.57;;;16.00;99.90;;;;;;4975439;28;20029;-74
2022/08/04 13:09:04;;;;;;;0.60;0.57;;;16.00;99.90;;;;;;4975322;28;20030;-73
2022/08/04 13:11:39;;;;;;;1.13;0.50;;;16.00;99.90;;;;;;4974031;28;20061;-74
2022/08/04 13:14:09;;;;;;;1.00;0.65;;;16.00;99.90;;;;;;4975381;28;20041;-73
2022/08/04 13:16:37;;;;;;;0.60;0.60;;;16.00;99.90;;;;;;4975169;28;20026;-74
2022/08/04 13:19:08;;;;;;;0.73;0.50;;;16.00;99.90;;;;;;4975031;28;20487;-74
2022/08/04 13:21:46;;;;;;;0.70;0.50;;;16.00;99.90;;;;;;4958098;28;20031;-74
2022/08/04 13:24:16;;;;;;;0.55;0.40;;;16.00;99.90;;;;;;4957890;28;20126;-75
2022/08/04 13:26:57;;;;;;;0.50;0.45;;;16.10;99.90;;;;;;4975034;28;20434;-75
2022/08/04 13:29:34;;;;;;;1.65;0.68;;;16.00;99.90;;;;;;4973488;28;20027;-74
2022/08/04 13:32:03;;;;;;;0.40;0.40;;;16.00;99.90;;;;;;4973684;28;20023;-75
2022/08/04 13:34:34;;;;;;;1.02;0.50;;;15.90;99.90;;;;;;4973715;28;20058;-74
2022/08/04 13:37:06;;;;;;;2.75;0.60;;;16.00;99.90;;;;;;4958332;28;20041;-74
2022/08/04 13:39:36;;;;;;;0.80;0.40;;;16.00;99.90;;;;;;4973947;28;20085;-74
2022/08/04 13:42:11;;;;;;;1.15;0.30;;;16.00;99.90;;;;;;4974161;28;20023;-75
2022/08/04 13:44:44;;;;;;;0.70;0.40;;;16.00;99.90;;;;;;4974553;28;20039;-73
2022/08/04 13:47:26;;;;;;;0.93;0.32;;;16.10;99.90;;;;;;4973939;28;20042;-73
2022/08/04 13:50:17;;;;;;;0.68;0.50;;;16.00;99.90;;;;;;4973476;28;20054;-73
2022/08/04 13:52:45;;;;;;;0.43;0.40;;;16.10;99.90;;;;;;4973234;28;20030;-72
2022/08/04 13:55:24;;;;;;;0.95;0.50;;;16.10;99.90;;;;;;4975151;28;20063;-74
2022/08/04 13:58:00;;;;;;;1.00;0.30;;;16.10;99.90;;;;;;4973130;28;20035;-73
2022/08/04 14:00:41;;;;;;;0.98;0.30;;;16.10;99.90;;;;;;4978701;28;20434;-73